sensor_id;sensor_type;location;lat;lon;timestamp;pressure;altitude;pressure_sealevel;temperature;humidity
69535;BME280;56754;51.568;5.048;2023-05-22T00:00:41;101512.00;;;19.23;61.66
69535;BME280;56754;51.568;5.048;2023-05-22T00:03:07;101513.13;;;19.22;61.20
69535;BME280;56754;51.568;5.048;2023-05-22T00:05:32;101503.44;;;19.21;61.75
69535;BME280;56754;51.568;5.048;2023-05-22T00:07:57;101495.66;;;19.20;61.79
69535;BME280;56754;51.568;5.048;2023-05-22T00:10:23;101497.16;;;19.17;62.02
69535;BME280;56754;51.568;5.048;2023-05-22T00:12:48;101502.56;;;19.17;62.17
69535;BME280;56754;51.568;5.048;2023-05-22T00:15:13;101503.69;;;19.16;61.91
69535;BME280;56754;51.568;5.048;2023-05-22T00:17:39;101491.28;;;19.15;61.86
69535;BME280;56754;51.568;5.048;2023-05-22T00:20:06;101497.03;;;19.14;62.01
69535;BME280;56754;51.568;5.048;2023-05-22T00:22:32;101501.69;;;19.13;62.04
69535;BME280;56754;51.568;5.048;2023-05-22T00:24:57;101496.63;;;19.12;62.13
69535;BME280;56754;51.568;5.048;2023-05-22T00:27:22;101500.13;;;19.12;61.60
69535;BME280;56754;51.568;5.048;2023-05-22T00:29:48;101493.47;;;19.09;62.11
69535;BME280;56754;51.568;5.048;2023-05-22T00:32:13;101494.63;;;19.08;61.93
69535;BME280;56754;51.568;5.048;2023-05-22T00:34:38;101492.69;;;19.09;61.96
69535;BME280;56754;51.568;5.048;2023-05-22T00:37:04;101492.25;;;19.07;62.09
69535;BME280;56754;51.568;5.048;2023-05-22T00:39:29;101482.56;;;19.06;62.00
69535;BME280;56754;51.568;5.048;2023-05-22T00:41:54;101479.84;;;19.06;62.04
69535;BME280;56754;51.568;5.048;2023-05-22T00:44:20;101470.50;;;19.03;62.07
69535;BME280;56754;51.568;5.048;2023-05-22T00:46:45;101473.56;;;19.02;62.38
69535;BME280;56754;51.568;5.048;2023-05-22T00:49:10;101482.81;;;19.01;62.08
69535;BME280;56754;51.568;5.048;2023-05-22T00:51:36;101471.97;;;19.01;62.04
69535;BME280;56754;51.568;5.048;2023-05-22T00:54:02;101471.97;;;19.01;62.30
69535;BME280;56754;51.568;5.048;2023-05-22T00:56:28;101473.47;;;18.98;61.94
69535;BME280;56754;51.568;5.048;2023-05-22T00:58:54;101473.03;;;18.96;61.85
69535;BME280;56754;51.568;5.048;2023-05-22T01:01:19;101474.94;;;18.96;62.03
69535;BME280;56754;51.568;5.048;2023-05-22T01:03:44;101476.88;;;18.95;62.46
69535;BME280;56754;51.568;5.048;2023-05-22T01:06:14;101477.25;;;18.94;62.11
69535;BME280;56754;51.568;5.048;2023-05-22T01:08:40;101465.97;;;18.92;62.08
69535;BME280;56754;51.568;5.048;2023-05-22T01:11:17;101474.09;;;18.92;62.10
69535;BME280;56754;51.568;5.048;2023-05-22T01:14:02;101456.59;;;18.89;62.12
69535;BME280;56754;51.568;5.048;2023-05-22T01:19:16;101474.78;;;18.89;62.52
69535;BME280;56754;51.568;5.048;2023-05-22T01:22:39;101472.41;;;18.87;62.58
69535;BME280;56754;51.568;5.048;2023-05-22T01:33:19;101477.75;;;18.83;62.71
69535;BME280;56754;51.568;5.048;2023-05-22T01:35:47;101478.13;;;18.82;62.42
69535;BME280;56754;51.568;5.048;2023-05-22T01:38:15;101480.81;;;18.82;62.66
69535;BME280;56754;51.568;5.048;2023-05-22T01:40:42;101475.75;;;18.80;62.60
69535;BME280;56754;51.568;5.048;2023-05-22T01:43:08;101479.59;;;18.79;62.72
69535;BME280;56754;51.568;5.048;2023-05-22T01:45:34;101478.03;;;18.78;62.57
69535;BME280;56754;51.568;5.048;2023-05-22T01:47:59;101479.94;;;18.78;62.64
69535;BME280;56754;51.568;5.048;2023-05-22T01:50:25;101470.25;;;18.77;62.81
69535;BME280;56754;51.568;5.048;2023-05-22T01:55:43;101470.59;;;18.75;62.77
69535;BME280;56754;51.568;5.048;2023-05-22T02:00:42;101456.63;;;18.73;62.53
69535;BME280;56754;51.568;5.048;2023-05-22T02:03:15;101465.81;;;18.72;62.65
69535;BME280;56754;51.568;5.048;2023-05-22T02:05:42;101457.28;;;18.70;62.75
69535;BME280;56754;51.568;5.048;2023-05-22T02:08:09;101463.81;;;18.69;62.74
69535;BME280;56754;51.568;5.048;2023-05-22T02:10:36;101460.31;;;18.69;62.78
69535;BME280;56754;51.568;5.048;2023-05-22T02:13:02;101466.88;;;18.68;62.63
69535;BME280;56754;51.568;5.048;2023-05-22T02:15:28;101465.31;;;18.67;62.78
69535;BME280;56754;51.568;5.048;2023-05-22T02:17:54;101457.53;;;18.65;62.75
69535;BME280;56754;51.568;5.048;2023-05-22T02:20:19;101454.81;;;18.65;62.67
69535;BME280;56754;51.568;5.048;2023-05-22T02:22:45;101455.97;;;18.64;62.87
69535;BME280;56754;51.568;5.048;2023-05-22T02:25:15;101454.38;;;18.63;62.91
69535;BME280;56754;51.568;5.048;2023-05-22T02:27:44;101453.59;;;18.62;62.94
69535;BME280;56754;51.568;5.048;2023-05-22T02:30:11;101459.38;;;18.61;62.96
69535;BME280;56754;51.568;5.048;2023-05-22T02:32:37;101446.97;;;18.60;63.09
69535;BME280;56754;51.568;5.048;2023-05-22T02:35:03;101442.69;;;18.59;63.12
69535;BME280;56754;51.568;5.048;2023-05-22T02:37:28;101451.59;;;18.59;63.10
69535;BME280;56754;51.568;5.048;2023-05-22T02:39:54;101440.31;;;18.57;63.22
69535;BME280;56754;51.568;5.048;2023-05-22T02:42:19;101447.66;;;18.57;63.24
69535;BME280;56754;51.568;5.048;2023-05-22T02:44:45;101444.53;;;18.55;63.05
69535;BME280;56754;51.568;5.048;2023-05-22T02:47:10;101442.16;;;18.53;63.00
69535;BME280;56754;51.568;5.048;2023-05-22T02:49:35;101441.72;;;18.51;63.29
69535;BME280;56754;51.568;5.048;2023-05-22T02:52:01;101426.28;;;18.52;63.06
69535;BME280;56754;51.568;5.048;2023-05-22T02:54:26;101426.63;;;18.50;62.98
69535;BME280;56754;51.568;5.048;2023-05-22T02:56:51;101429.69;;;18.49;62.96
69535;BME280;56754;51.568;5.048;2023-05-22T02:59:16;101428.09;;;18.48;63.33
69535;BME280;56754;51.568;5.048;2023-05-22T03:01:42;101431.94;;;18.47;63.24
69535;BME280;56754;51.568;5.048;2023-05-22T03:04:07;101429.56;;;18.45;63.29
69535;BME280;56754;51.568;5.048;2023-05-22T03:06:32;101439.63;;;18.45;63.18
69535;BME280;56754;51.568;5.048;2023-05-22T03:08:58;101432.63;;;18.44;63.01
69535;BME280;56754;51.568;5.048;2023-05-22T03:11:23;101424.84;;;18.42;63.07
69535;BME280;56754;51.568;5.048;2023-05-22T03:13:48;101425.22;;;18.40;63.17
69535;BME280;56754;51.568;5.048;2023-05-22T03:16:13;101426.69;;;18.38;62.77
69535;BME280;56754;51.568;5.048;2023-05-22T03:18:39;101427.84;;;18.37;63.00
69535;BME280;56754;51.568;5.048;2023-05-22T03:21:04;101430.09;;;18.35;62.91
69535;BME280;56754;51.568;5.048;2023-05-22T03:23:30;101429.31;;;18.34;62.84
69535;BME280;56754;51.568;5.048;2023-05-22T03:25:55;101427.72;;;18.33;63.50
69535;BME280;56754;51.568;5.048;2023-05-22T03:28:21;101424.59;;;18.31;62.90
69535;BME280;56754;51.568;5.048;2023-05-22T03:30:46;101428.41;;;18.30;63.23
69535;BME280;56754;51.568;5.048;2023-05-22T03:33:11;101424.94;;;18.30;63.24
69535;BME280;56754;51.568;5.048;2023-05-22T03:35:37;101441.53;;;18.28;63.36
69535;BME280;56754;51.568;5.048;2023-05-22T03:38:02;101437.22;;;18.27;63.31
69535;BME280;56754;51.568;5.048;2023-05-22T03:40:27;101431.41;;;18.25;63.42
69535;BME280;56754;51.568;5.048;2023-05-22T03:42:53;101418.19;;;18.24;63.21
69535;BME280;56754;51.568;5.048;2023-05-22T03:45:18;101428.25;;;18.23;63.53
69535;BME280;56754;51.568;5.048;2023-05-22T03:47:43;101418.56;;;18.22;63.29
69535;BME280;56754;51.568;5.048;2023-05-22T03:50:09;101424.31;;;18.21;63.45
69535;BME280;56754;51.568;5.048;2023-05-22T03:52:34;101425.44;;;18.19;63.52
69535;BME280;56754;51.568;5.048;2023-05-22T03:55:00;101417.66;;;18.18;62.54
69535;BME280;56754;51.568;5.048;2023-05-22T03:57:25;101420.38;;;18.18;63.40
69535;BME280;56754;51.568;5.048;2023-05-22T03:59:53;101418.81;;;18.17;63.83
69535;BME280;56754;51.568;5.048;2023-05-22T04:02:18;101423.44;;;18.16;63.24
69535;BME280;56754;51.568;5.048;2023-05-22T04:04:44;101419.13;;;18.15;63.05
69535;BME280;56754;51.568;5.048;2023-05-22T04:07:09;101424.91;;;18.14;63.33
69535;BME280;56754;51.568;5.048;2023-05-22T04:09:34;101414.41;;;18.12;63.28
69535;BME280;56754;51.568;5.048;2023-05-22T04:12:01;101427.94;;;18.12;63.62
69535;BME280;56754;51.568;5.048;2023-05-22T04:14:27;101420.19;;;18.11;63.66
69535;BME280;56754;51.568;5.048;2023-05-22T04:16:52;101425.59;;;18.11;63.73
69535;BME280;56754;51.568;5.048;2023-05-22T04:19:18;101429.41;;;18.10;63.72
69535;BME280;56754;51.568;5.048;2023-05-22T04:21:43;101424.00;;;18.10;63.63
69535;BME280;56754;51.568;5.048;2023-05-22T04:24:08;101421.66;;;18.08;62.84
69535;BME280;56754;51.568;5.048;2023-05-22T04:26:34;101435.97;;;18.09;63.08
69535;BME280;56754;51.568;5.048;2023-05-22T04:28:59;101435.97;;;18.09;63.30
69535;BME280;56754;51.568;5.048;2023-05-22T04:31:24;101432.03;;;18.06;62.88
69535;BME280;56754;51.568;5.048;2023-05-22T04:33:50;101432.41;;;18.05;63.55
69535;BME280;56754;51.568;5.048;2023-05-22T04:36:15;101427.75;;;18.05;63.01
69535;BME280;56754;51.568;5.048;2023-05-22T04:38:41;101431.25;;;18.06;62.92
69535;BME280;56754;51.568;5.048;2023-05-22T04:41:06;101432.41;;;18.05;63.42
69535;BME280;56754;51.568;5.048;2023-05-22T04:43:31;101430.81;;;18.04;63.36
69535;BME280;56754;51.568;5.048;2023-05-22T04:45:57;101436.22;;;18.04;62.46
69535;BME280;56754;51.568;5.048;2023-05-22T04:48:22;101438.91;;;18.04;62.82
69535;BME280;56754;51.568;5.048;2023-05-22T04:50:51;101436.22;;;18.04;63.01
69535;BME280;56754;51.568;5.048;2023-05-22T04:53:16;101436.56;;;18.02;63.13
69535;BME280;56754;51.568;5.048;2023-05-22T04:55:43;101439.69;;;18.04;63.12
69535;BME280;56754;51.568;5.048;2023-05-22T04:58:08;101433.50;;;18.04;63.26
69535;BME280;56754;51.568;5.048;2023-05-22T05:00:33;101433.50;;;18.04;63.41
69535;BME280;56754;51.568;5.048;2023-05-22T05:02:59;101438.59;;;18.05;63.25
69535;BME280;56754;51.568;5.048;2023-05-22T05:05:24;101442.06;;;18.06;63.21
69535;BME280;56754;51.568;5.048;2023-05-22T05:07:50;101451.31;;;18.05;63.08
69535;BME280;56754;51.568;5.048;2023-05-22T05:10:15;101447.47;;;18.06;62.67
69535;BME280;56754;51.568;5.048;2023-05-22T05:12:40;101448.72;;;18.08;62.93
69535;BME280;56754;51.568;5.048;2023-05-22T05:15:06;101448.72;;;18.08;63.02
69535;BME280;56754;51.568;5.048;2023-05-22T05:17:32;101454.44;;;18.07;63.31
69535;BME280;56754;51.568;5.048;2023-05-22T05:19:58;101461.88;;;18.10;63.36
69535;BME280;56754;51.568;5.048;2023-05-22T05:22:24;101458.06;;;18.11;62.72
69535;BME280;56754;51.568;5.048;2023-05-22T05:24:49;101461.56;;;18.11;62.99
69535;BME280;56754;51.568;5.048;2023-05-22T05:27:14;101461.19;;;18.13;62.67
69535;BME280;56754;51.568;5.048;2023-05-22T05:29:39;101458.16;;;18.14;62.36
69535;BME280;56754;51.568;5.048;2023-05-22T05:32:05;101462.09;;;18.17;62.66
69535;BME280;56754;51.568;5.048;2023-05-22T05:34:30;101465.56;;;18.17;62.64
69535;BME280;56754;51.568;5.048;2023-05-22T05:36:56;101462.53;;;18.19;62.40
69535;BME280;56754;51.568;5.048;2023-05-22T05:39:21;101465.34;;;18.23;62.31
69535;BME280;56754;51.568;5.048;2023-05-22T05:41:46;101459.56;;;18.24;62.30
69535;BME280;56754;51.568;5.048;2023-05-22T05:44:12;101464.66;;;18.26;62.24
69535;BME280;56754;51.568;5.048;2023-05-22T05:46:37;101459.66;;;18.28;62.10
69535;BME280;56754;51.568;5.048;2023-05-22T05:49:06;101467.09;;;18.31;62.55
69535;BME280;56754;51.568;5.048;2023-05-22T05:51:32;101470.69;;;18.35;62.30
69535;BME280;56754;51.568;5.048;2023-05-22T05:53:57;101465.72;;;18.37;62.02
69535;BME280;56754;51.568;5.048;2023-05-22T05:56:23;101470.44;;;18.40;61.77
69535;BME280;56754;51.568;5.048;2023-05-22T05:58:48;101466.22;;;18.42;61.07
69535;BME280;56754;51.568;5.048;2023-05-22T06:01:13;101473.25;;;18.44;60.40
69535;BME280;56754;51.568;5.048;2023-05-22T06:03:39;101473.66;;;18.46;60.36
69535;BME280;56754;51.568;5.048;2023-05-22T06:06:04;101477.59;;;18.48;60.35
69535;BME280;56754;51.568;5.048;2023-05-22T06:08:29;101479.97;;;18.50;60.38
69535;BME280;56754;51.568;5.048;2023-05-22T06:10:55;101471.50;;;18.51;60.49
69535;BME280;56754;51.568;5.048;2023-05-22T06:13:20;101484.69;;;18.53;60.93
69535;BME280;56754;51.568;5.048;2023-05-22T06:15:45;101484.31;;;18.54;60.83
69535;BME280;56754;51.568;5.048;2023-05-22T06:18:10;101478.56;;;18.56;61.11
69535;BME280;56754;51.568;5.048;2023-05-22T06:20:36;101483.63;;;18.57;61.35
69535;BME280;56754;51.568;5.048;2023-05-22T06:23:01;101481.38;;;18.59;61.58
69535;BME280;56754;51.568;5.048;2023-05-22T06:25:26;101485.31;;;18.62;61.70
69535;BME280;56754;51.568;5.048;2023-05-22T06:27:52;101477.19;;;18.62;61.97
69535;BME280;56754;51.568;5.048;2023-05-22T06:30:17;101487.69;;;18.63;62.07
69535;BME280;56754;51.568;5.048;2023-05-22T06:32:42;101491.97;;;18.64;61.89
69535;BME280;56754;51.568;5.048;2023-05-22T06:35:09;101497.00;;;18.66;62.25
69535;BME280;56754;51.568;5.048;2023-05-22T06:37:35;101495.09;;;18.67;62.22
69535;BME280;56754;51.568;5.048;2023-05-22T06:40:00;101496.66;;;18.68;62.52
69535;BME280;56754;51.568;5.048;2023-05-22T06:42:26;101507.13;;;18.69;62.50
69535;BME280;56754;51.568;5.048;2023-05-22T06:44:51;101507.94;;;18.70;62.30
69535;BME280;56754;51.568;5.048;2023-05-22T06:47:17;101518.41;;;18.71;62.36
69535;BME280;56754;51.568;5.048;2023-05-22T06:49:42;101508.06;;;18.73;62.66
69535;BME280;56754;51.568;5.048;2023-05-22T06:52:07;101517.75;;;18.74;62.96
69535;BME280;56754;51.568;5.048;2023-05-22T06:54:33;101519.34;;;18.75;62.81
69535;BME280;56754;51.568;5.048;2023-05-22T06:56:58;101526.31;;;18.76;63.05
69535;BME280;56754;51.568;5.048;2023-05-22T06:59:24;101530.59;;;18.77;63.39
69535;BME280;56754;51.568;5.048;2023-05-22T07:01:49;101532.19;;;18.78;63.54
69535;BME280;56754;51.568;5.048;2023-05-22T07:04:14;101531.06;;;18.79;63.78
69535;BME280;56754;51.568;5.048;2023-05-22T07:06:39;101522.91;;;18.79;63.96
69535;BME280;56754;51.568;5.048;2023-05-22T07:09:05;101535.00;;;18.82;63.98
69535;BME280;56754;51.568;5.048;2023-05-22T07:11:31;101531.13;;;18.83;63.68
69535;BME280;56754;51.568;5.048;2023-05-22T07:13:56;101534.63;;;18.83;63.57
69535;BME280;56754;51.568;5.048;2023-05-22T07:16:22;101534.28;;;18.85;64.31
69535;BME280;56754;51.568;5.048;2023-05-22T07:18:47;101542.41;;;18.85;64.34
69535;BME280;56754;51.568;5.048;2023-05-22T07:21:12;101541.28;;;18.86;64.41
69535;BME280;56754;51.568;5.048;2023-05-22T07:23:38;101538.56;;;18.86;64.51
69535;BME280;56754;51.568;5.048;2023-05-22T07:26:03;101536.63;;;18.86;64.41
69535;BME280;56754;51.568;5.048;2023-05-22T07:28:29;101539.34;;;18.86;64.06
69535;BME280;56754;51.568;5.048;2023-05-22T07:30:54;101539.00;;;18.88;64.19
69535;BME280;56754;51.568;5.048;2023-05-22T07:33:19;101542.50;;;18.89;64.29
69535;BME280;56754;51.568;5.048;2023-05-22T07:35:44;101538.66;;;18.90;63.98
69535;BME280;56754;51.568;5.048;2023-05-22T07:38:10;101538.31;;;18.91;63.95
69535;BME280;56754;51.568;5.048;2023-05-22T07:40:35;101539.09;;;18.92;64.40
69535;BME280;56754;51.568;5.048;2023-05-22T07:43:01;101546.88;;;18.93;63.44
69535;BME280;56754;51.568;5.048;2023-05-22T07:45:26;101532.97;;;18.95;63.91
69535;BME280;56754;51.568;5.048;2023-05-22T07:47:51;101529.13;;;18.96;63.70
69535;BME280;56754;51.568;5.048;2023-05-22T07:50:16;101542.34;;;18.97;63.62
69535;BME280;56754;51.568;5.048;2023-05-22T07:52:42;101539.25;;;18.99;63.46
69535;BME280;56754;51.568;5.048;2023-05-22T07:55:08;101554.41;;;19.00;64.32
69535;BME280;56754;51.568;5.048;2023-05-22T07:57:33;101549.75;;;19.00;63.81
69535;BME280;56754;51.568;5.048;2023-05-22T07:59:59;101552.13;;;19.02;63.59
69535;BME280;56754;51.568;5.048;2023-05-22T08:02:24;101550.22;;;19.02;63.65
69535;BME280;56754;51.568;5.048;2023-05-22T08:04:52;101557.97;;;19.04;63.32
69535;BME280;56754;51.568;5.048;2023-05-22T08:07:17;101555.72;;;19.06;63.47
69535;BME280;56754;51.568;5.048;2023-05-22T08:09:42;101553.44;;;19.08;63.43
69535;BME280;56754;51.568;5.048;2023-05-22T08:12:08;101553.09;;;19.09;63.46
69535;BME280;56754;51.568;5.048;2023-05-22T08:14:33;101560.88;;;19.11;63.35
69535;BME280;56754;51.568;5.048;2023-05-22T08:16:58;101550.03;;;19.11;63.67
69535;BME280;56754;51.568;5.048;2023-05-22T08:19:24;101548.88;;;19.12;63.50
69535;BME280;56754;51.568;5.048;2023-05-22T08:21:49;101552.06;;;19.14;63.83
69535;BME280;56754;51.568;5.048;2023-05-22T08:24:15;101546.25;;;19.16;63.61
69535;BME280;56754;51.568;5.048;2023-05-22T08:26:44;101549.75;;;19.16;63.33
69535;BME280;56754;51.568;5.048;2023-05-22T08:29:09;101551.34;;;19.17;63.10
69535;BME280;56754;51.568;5.048;2023-05-22T08:31:34;101548.28;;;19.19;63.42
69535;BME280;56754;51.568;5.048;2023-05-22T08:34:00;101560.72;;;19.20;63.44
69535;BME280;56754;51.568;5.048;2023-05-22T08:36:25;101554.13;;;19.21;63.23
69535;BME280;56754;51.568;5.048;2023-05-22T08:38:52;101553.78;;;19.22;63.28
69535;BME280;56754;51.568;5.048;2023-05-22T08:41:17;101549.59;;;19.25;63.31
69535;BME280;56754;51.568;5.048;2023-05-22T08:43:43;101552.75;;;19.27;63.33
69535;BME280;56754;51.568;5.048;2023-05-22T08:46:08;101553.19;;;19.29;63.17
69535;BME280;56754;51.568;5.048;2023-05-22T08:48:33;101552.03;;;19.30;63.02
69535;BME280;56754;51.568;5.048;2023-05-22T08:51:04;101552.81;;;19.30;62.92
69535;BME280;56754;51.568;5.048;2023-05-22T08:53:34;101552.03;;;19.30;62.87
69535;BME280;56754;51.568;5.048;2023-05-22T08:56:01;101553.59;;;19.31;62.66
69535;BME280;56754;51.568;5.048;2023-05-22T08:58:27;101550.56;;;19.32;62.77
69535;BME280;56754;51.568;5.048;2023-05-22T09:00:53;101545.13;;;19.32;62.77
69535;BME280;56754;51.568;5.048;2023-05-22T09:03:19;101552.91;;;19.34;62.73
69535;BME280;56754;51.568;5.048;2023-05-22T09:05:44;101544.75;;;19.34;62.55
69535;BME280;56754;51.568;5.048;2023-05-22T09:08:10;101545.91;;;19.33;62.63
69535;BME280;56754;51.568;5.048;2023-05-22T09:10:35;101544.75;;;19.34;62.68
69535;BME280;56754;51.568;5.048;2023-05-22T09:13:07;101543.28;;;19.37;62.64
69535;BME280;56754;51.568;5.048;2023-05-22T09:15:34;101537.84;;;19.37;62.58
69535;BME280;56754;51.568;5.048;2023-05-22T09:18:04;101537.94;;;19.40;62.52
69535;BME280;56754;51.568;5.048;2023-05-22T09:20:33;101542.25;;;19.41;62.33
69535;BME280;56754;51.568;5.048;2023-05-22T09:22:59;101534.53;;;19.43;62.43
69535;BME280;56754;51.568;5.048;2023-05-22T09:25:26;101538.81;;;19.44;62.40
69535;BME280;56754;51.568;5.048;2023-05-22T09:27:51;101535.75;;;19.46;62.43
69535;BME280;56754;51.568;5.048;2023-05-22T09:30:17;101535.75;;;19.46;62.46
69535;BME280;56754;51.568;5.048;2023-05-22T09:32:52;101531.91;;;19.47;62.14
69535;BME280;56754;51.568;5.048;2023-05-22T09:35:19;101524.56;;;19.47;62.27
69535;BME280;56754;51.568;5.048;2023-05-22T09:37:44;101529.28;;;19.50;62.24
69535;BME280;56754;51.568;5.048;2023-05-22T09:40:11;101534.69;;;19.50;62.06
69535;BME280;56754;51.568;5.048;2023-05-22T09:42:36;101538.19;;;19.51;62.16
69535;BME280;56754;51.568;5.048;2023-05-22T09:45:06;101534.34;;;19.52;62.07
69535;BME280;56754;51.568;5.048;2023-05-22T09:47:32;101530.50;;;19.53;62.18
69535;BME280;56754;51.568;5.048;2023-05-22T09:49:57;101533.63;;;19.55;61.96
69535;BME280;56754;51.568;5.048;2023-05-22T09:52:23;101532.06;;;19.54;61.94
69535;BME280;56754;51.568;5.048;2023-05-22T09:54:51;101529.00;;;19.55;61.90
69535;BME280;56754;51.568;5.048;2023-05-22T09:57:18;101533.28;;;19.57;61.82
69535;BME280;56754;51.568;5.048;2023-05-22T09:59:49;101524.38;;;19.56;61.83
69535;BME280;56754;51.568;5.048;2023-05-22T10:02:15;101528.31;;;19.59;61.82
69535;BME280;56754;51.568;5.048;2023-05-22T10:04:41;101523.66;;;19.59;61.88
69535;BME280;56754;51.568;5.048;2023-05-22T10:07:09;101515.16;;;19.61;61.75
69535;BME280;56754;51.568;5.048;2023-05-22T10:09:37;101520.59;;;19.61;61.68
69535;BME280;56754;51.568;5.048;2023-05-22T10:12:05;101514.81;;;19.62;61.60
69535;BME280;56754;51.568;5.048;2023-05-22T10:14:33;101516.38;;;19.63;61.62
69535;BME280;56754;51.568;5.048;2023-05-22T10:16:59;101514.44;;;19.64;61.63
69535;BME280;56754;51.568;5.048;2023-05-22T10:19:24;101518.78;;;19.65;61.50
69535;BME280;56754;51.568;5.048;2023-05-22T10:21:50;101509.50;;;19.66;61.54
69535;BME280;56754;51.568;5.048;2023-05-22T10:24:16;101515.72;;;19.66;61.44
69535;BME280;56754;51.568;5.048;2023-05-22T10:26:43;101511.88;;;19.67;61.41
69535;BME280;56754;51.568;5.048;2023-05-22T10:29:15;101514.22;;;19.69;61.41
69535;BME280;56754;51.568;5.048;2023-05-22T10:34:39;101501.88;;;19.71;61.33
69535;BME280;56754;51.568;5.048;2023-05-22T10:42:22;101500.81;;;19.76;61.25
69535;BME280;56754;51.568;5.048;2023-05-22T10:44:48;101504.31;;;19.76;61.26
69535;BME280;56754;51.568;5.048;2023-05-22T10:47:13;101506.66;;;19.78;61.19
69535;BME280;56754;51.568;5.048;2023-05-22T10:49:42;101504.81;;;19.82;61.16
69535;BME280;56754;51.568;5.048;2023-05-22T10:52:08;101497.91;;;19.85;61.17
69535;BME280;56754;51.568;5.048;2023-05-22T10:54:42;101502.19;;;19.86;61.09
69535;BME280;56754;51.568;5.048;2023-05-22T10:57:16;101497.19;;;19.88;60.98
69535;BME280;56754;51.568;5.048;2023-05-22T10:59:43;101491.41;;;19.89;60.90
69535;BME280;56754;51.568;5.048;2023-05-22T11:02:23;101492.63;;;19.92;60.94
69535;BME280;56754;51.568;5.048;2023-05-22T11:04:49;101495.75;;;19.94;60.85
69535;BME280;56754;51.568;5.048;2023-05-22T11:07:14;101498.53;;;19.97;60.66
69535;BME280;56754;51.568;5.048;2023-05-22T11:09:40;101504.41;;;19.99;60.64
69535;BME280;56754;51.568;5.048;2023-05-22T11:12:25;101501.69;;;19.99;60.56
69535;BME280;56754;51.568;5.048;2023-05-22T11:15:09;101502.88;;;20.02;60.74
69535;BME280;56754;51.568;5.048;2023-05-22T11:20:23;101496.34;;;20.03;60.54
69535;BME280;56754;51.568;5.048;2023-05-22T11:22:55;101493.63;;;20.03;60.44
69535;BME280;56754;51.568;5.048;2023-05-22T11:25:21;101496.75;;;20.05;60.59
69535;BME280;56754;51.568;5.048;2023-05-22T11:27:47;101497.19;;;20.07;60.41
69535;BME280;56754;51.568;5.048;2023-05-22T11:30:14;101491.75;;;20.07;60.53
69535;BME280;56754;51.568;5.048;2023-05-22T11:32:42;101489.03;;;20.07;60.39
69535;BME280;56754;51.568;5.048;2023-05-22T11:35:07;101491.41;;;20.09;60.39
69535;BME280;56754;51.568;5.048;2023-05-22T11:37:38;101499.19;;;20.10;60.41
69535;BME280;56754;51.568;5.048;2023-05-22T11:40:04;101495.69;;;20.10;60.33
69535;BME280;56754;51.568;5.048;2023-05-22T11:42:29;101499.97;;;20.11;60.42
69535;BME280;56754;51.568;5.048;2023-05-22T11:44:55;101494.19;;;20.12;60.42
69535;BME280;56754;51.568;5.048;2023-05-22T11:47:23;101494.63;;;20.14;60.41
69535;BME280;56754;51.568;5.048;2023-05-22T11:49:49;101482.63;;;20.15;60.23
69535;BME280;56754;51.568;5.048;2023-05-22T11:52:17;101480.34;;;20.17;60.39
69535;BME280;56754;51.568;5.048;2023-05-22T11:54:46;101487.31;;;20.18;60.18
69535;BME280;56754;51.568;5.048;2023-05-22T11:57:11;101474.53;;;20.19;60.22
69535;BME280;56754;51.568;5.048;2023-05-22T11:59:37;101480.03;;;20.22;60.32
69535;BME280;56754;51.568;5.048;2023-05-22T12:02:02;101483.97;;;20.25;60.07
69535;BME280;56754;51.568;5.048;2023-05-22T12:04:27;101494.09;;;20.28;60.05
69535;BME280;56754;51.568;5.048;2023-05-22T12:06:53;101490.25;;;20.29;60.10
69535;BME280;56754;51.568;5.048;2023-05-22T12:09:19;101486.38;;;20.30;59.92
69535;BME280;56754;51.568;5.048;2023-05-22T12:11:47;101489.88;;;20.31;60.24
69535;BME280;56754;51.568;5.048;2023-05-22T12:14:13;101491.03;;;20.30;60.10
69535;BME280;56754;51.568;5.048;2023-05-22T12:16:39;101493.03;;;20.33;59.99
69535;BME280;56754;51.568;5.048;2023-05-22T12:19:05;101492.66;;;20.34;59.95
69535;BME280;56754;51.568;5.048;2023-05-22T12:21:31;101501.22;;;20.36;59.90
69535;BME280;56754;51.568;5.048;2023-05-22T12:23:56;101490.81;;;20.38;59.75
69535;BME280;56754;51.568;5.048;2023-05-22T12:26:22;101490.44;;;20.40;59.77
69535;BME280;56754;51.568;5.048;2023-05-22T12:28:51;101501.78;;;20.45;59.54
69535;BME280;56754;51.568;5.048;2023-05-22T12:31:21;101497.13;;;20.46;59.70
69535;BME280;56754;51.568;5.048;2023-05-22T12:33:46;101499.13;;;20.49;59.48
69535;BME280;56754;51.568;5.048;2023-05-22T12:36:11;101500.03;;;20.53;59.33
69535;BME280;56754;51.568;5.048;2023-05-22T12:38:37;101492.28;;;20.55;59.31
69535;BME280;56754;51.568;5.048;2023-05-22T12:41:02;101499.31;;;20.56;59.22
69535;BME280;56754;51.568;5.048;2023-05-22T12:43:28;101499.31;;;20.56;59.29
69535;BME280;56754;51.568;5.048;2023-05-22T12:45:53;101497.00;;;20.58;59.35
69535;BME280;56754;51.568;5.048;2023-05-22T12:48:19;101498.59;;;20.59;59.04
69535;BME280;56754;51.568;5.048;2023-05-22T12:50:44;101488.94;;;20.62;59.10
69535;BME280;56754;51.568;5.048;2023-05-22T12:53:10;101497.13;;;20.65;58.98
69535;BME280;56754;51.568;5.048;2023-05-22T12:55:36;101484.81;;;20.72;59.11
69535;BME280;56754;51.568;5.048;2023-05-22T12:58:01;101489.59;;;20.78;58.75
69535;BME280;56754;51.568;5.048;2023-05-22T13:00:27;101484.22;;;20.82;58.65
69535;BME280;56754;51.568;5.048;2023-05-22T13:02:52;101490.50;;;20.86;58.66
69535;BME280;56754;51.568;5.048;2023-05-22T13:05:17;101490.91;;;20.88;58.16
69535;BME280;56754;51.568;5.048;2023-05-22T13:07:43;101478.91;;;20.89;58.43
69535;BME280;56754;51.568;5.048;2023-05-22T13:10:08;101481.31;;;20.94;58.52
69535;BME280;56754;51.568;5.048;2023-05-22T13:12:33;101477.50;;;20.99;58.51